Time;durP1;ratioP1;P1;durP2;ratioP2;P2;SDS_P1;SDS_P2;PMS_P1;PMS_P2;Temp;Humidity;BMP_temperature;BMP_pressure;BME280_temperature;BME280_humidity;BME280_pressure;Samples;Min_cycle;Max_cycle;Signal;HPM_P1;HPM_P2
2022/08/04 00:02:02;;;;;;;6.45;4.50;;;;;;;;;;4899807;29;20563;-57
2022/08/04 00:04:48;;;;;;;7.50;4.57;;;;;;;;;;4900020;29;20044;-55
2022/08/04 00:07:40;;;;;;;8.02;4.15;;;;;;;;;;4899664;29;20482;-55
2022/08/04 00:10:07;;;;;;;5.55;4.45;;;;;;;;;;4899957;29;20040;-50
2022/08/04 00:12:35;;;;;;;6.57;4.07;;;;;;;;;;4899826;29;20040;-46
2022/08/04 00:15:04;;;;;;;11.15;5.13;;;;;;;;;;4899747;29;20032;-45
2022/08/04 00:17:33;;;;;;;7.93;4.78;;;;;;;;;;4899467;29;20028;-44
2022/08/04 00:20:00;;;;;;;7.20;4.57;;;;;;;;;;4899705;29;20028;-42
2022/08/04 00:22:29;;;;;;;7.03;4.55;;;;;;;;;;4898479;29;20100;-45
2022/08/04 00:25:01;;;;;;;8.02;4.68;;;;;;;;;;4898427;29;20037;-52
2022/08/04 00:27:28;;;;;;;8.63;5.13;;;;;;;;;;4899626;29;20043;-57
2022/08/04 00:29:55;;;;;;;9.10;4.72;;;;;;;;;;4899400;29;20040;-55
2022/08/04 00:32:21;;;;;;;5.57;4.50;;;;;;;;;;4899452;29;20544;-44
2022/08/04 00:34:47;;;;;;;8.20;4.72;;;;;;;;;;4899389;29;20124;-52
2022/08/04 00:37:13;;;;;;;8.10;4.32;;;;;;;;;;4899302;29;20478;-55
2022/08/04 00:39:39;;;;;;;8.10;4.35;;;;;;;;;;4899287;29;20028;-48
2022/08/04 00:42:26;;;;;;;9.05;4.63;;;;;;;;;;4899289;29;20088;-47
2022/08/04 00:45:33;;;;;;;8.23;4.60;;;;;;;;;;4899287;29;20093;-44
2022/08/04 00:48:34;;;;;;;7.45;4.55;;;;;;;;;;4899291;29;20070;-44
2022/08/04 00:51:20;;;;;;;10.20;4.72;;;;;;;;;;4898793;29;20049;-45
2022/08/04 00:53:51;;;;;;;8.00;4.97;;;;;;;;;;4899081;29;20385;-52
2022/08/04 00:56:35;;;;;;;6.13;4.45;;;;;;;;;;4898729;29;20048;-56
2022/08/04 00:59:19;;;;;;;12.27;4.25;;;;;;;;;;4898729;29;20054;-55
2022/08/04 01:01:59;;;;;;;7.88;4.75;;;;;;;;;;4898668;29;20040;-52
2022/08/04 01:04:36;;;;;;;6.70;5.00;;;;;;;;;;4899231;29;20436;-54
2022/08/04 01:07:20;;;;;;;7.75;4.70;;;;;;;;;;4898876;29;20029;-48
2022/08/04 01:10:26;;;;;;;5.95;4.35;;;;;;;;;;4898586;29;20132;-53
2022/08/04 01:13:24;;;;;;;9.88;4.50;;;;;;;;;;4898820;29;20040;-57
2022/08/04 01:16:06;;;;;;;5.22;4.43;;;;;;;;;;4898632;29;20032;-52
2022/08/04 01:18:58;;;;;;;10.00;5.20;;;;;;;;;;4898364;29;20032;-49
2022/08/04 01:21:54;;;;;;;4.53;4.10;;;;;;;;;;4898336;29;20025;-53
2022/08/04 01:24:54;;;;;;;9.27;4.70;;;;;;;;;;4898318;29;20470;-57
2022/08/04 01:27:22;;;;;;;7.93;4.22;;;;;;;;;;4877165;29;20047;-49
2022/08/04 01:29:51;;;;;;;13.63;5.13;;;;;;;;;;4898388;29;20029;-43
2022/08/04 01:32:36;;;;;;;6.18;4.50;;;;;;;;;;4898401;29;20043;-45
2022/08/04 01:35:12;;;;;;;8.35;4.65;;;;;;;;;;4897973;29;20155;-44
2022/08/04 01:38:05;;;;;;;8.38;4.20;;;;;;;;;;4898134;29;20638;-47
2022/08/04 01:40:31;;;;;;;10.43;4.82;;;;;;;;;;4897957;29;20032;-43
2022/08/04 01:42:59;;;;;;;6.15;4.20;;;;;;;;;;4898199;29;20104;-51
2022/08/04 01:45:28;;;;;;;6.25;4.57;;;;;;;;;;4898161;29;20123;-49
2022/08/04 01:47:55;;;;;;;6.88;4.30;;;;;;;;;;4897840;29;20079;-43
2022/08/04 01:50:22;;;;;;;5.55;4.60;;;;;;;;;;4897642;29;20059;-47
2022/08/04 01:52:52;;;;;;;8.48;4.53;;;;;;;;;;4897975;29;20497;-56
2022/08/04 01:55:18;;;;;;;4.70;4.30;;;;;;;;;;4897977;29;20054;-56
2022/08/04 01:57:47;;;;;;;6.03;4.60;;;;;;;;;;4897692;29;20048;-53
2022/08/04 02:00:16;;;;;;;5.93;4.75;;;;;;;;;;4897600;29;20029;-43
2022/08/04 02:02:43;;;;;;;5.15;4.57;;;;;;;;;;4897913;29;20396;-56
2022/08/04 02:05:10;;;;;;;5.97;4.65;;;;;;;;;;4897557;29;20031;-51
2022/08/04 02:08:02;;;;;;;13.40;4.50;;;;;;;;;;4897596;29;20033;-47
2022/08/04 02:10:49;;;;;;;5.53;4.30;;;;;;;;;;4897458;29;20501;-42
2022/08/04 02:13:30;;;;;;;8.13;4.07;;;;;;;;;;4897758;29;20044;-42
2022/08/04 02:16:07;;;;;;;8.88;4.82;;;;;;;;;;4897662;29;20036;-54
2022/08/04 02:18:46;;;;;;;10.07;4.75;;;;;;;;;;4897450;29;20037;-58
2022/08/04 02:21:14;;;;;;;9.00;4.53;;;;;;;;;;4897742;29;20123;-42
2022/08/04 02:23:40;;;;;;;5.82;4.47;;;;;;;;;;4897624;29;20047;-54
2022/08/04 02:26:18;;;;;;;7.57;4.32;;;;;;;;;;4897586;29;20521;-46
2022/08/04 02:29:05;;;;;;;4.95;4.03;;;;;;;;;;4897642;29;20025;-50
2022/08/04 02:31:39;;;;;;;11.43;4.75;;;;;;;;;;4897222;29;20538;-51
2022/08/04 02:34:08;;;;;;;8.27;4.32;;;;;;;;;;4897256;29;20124;-42
2022/08/04 02:36:37;;;;;;;9.65;4.90;;;;;;;;;;4897484;29;20041;-46
2022/08/04 02:39:05;;;;;;;6.38;4.22;;;;;;;;;;4897236;29;20028;-55
2022/08/04 02:41:32;;;;;;;5.50;4.22;;;;;;;;;;4897479;29;20095;-44
2022/08/04 02:44:00;;;;;;;11.75;4.55;;;;;;;;;;4897230;29;20512;-52
2022/08/04 02:46:26;;;;;;;5.72;4.00;;;;;;;;;;4899444;29;20042;-55
2022/08/04 02:48:53;;;;;;;5.75;4.50;;;;;;;;;;4901050;29;20072;-54
2022/08/04 02:51:24;;;;;;;8.32;4.68;;;;;;;;;;4900876;29;20425;-56
2022/08/04 02:53:53;;;;;;;6.18;4.15;;;;;;;;;;4900934;29;20083;-54
2022/08/04 02:56:19;;;;;;;7.00;4.10;;;;;;;;;;4900707;29;20039;-52
2022/08/04 02:58:52;;;;;;;6.10;4.30;;;;;;;;;;4900846;29;20048;-44
2022/08/04 03:01:17;;;;;;;7.53;4.00;;;;;;;;;;4900786;29;20104;-57
2022/08/04 03:04:09;;;;;;;8.27;4.13;;;;;;;;;;4901035;29;20128;-56
2022/08/04 03:06:40;;;;;;;6.85;4.30;;;;;;;;;;4882314;29;20565;-47
2022/08/04 03:09:44;;;;;;;5.75;4.00;;;;;;;;;;4900616;29;20036;-55
2022/08/04 03:12:37;;;;;;;8.68;4.47;;;;;;;;;;4900945;29;20143;-41
2022/08/04 03:15:24;;;;;;;7.88;3.83;;;;;;;;;;4900454;29;20119;-45
2022/08/04 03:17:58;;;;;;;8.50;4.28;;;;;;;;;;4900788;29;20029;-50
2022/08/04 03:20:32;;;;;;;4.82;4.03;;;;;;;;;;4900506;29;20083;-44
2022/08/04 03:23:29;;;;;;;8.55;4.30;;;;;;;;;;4900713;29;20083;-41
2022/08/04 03:26:03;;;;;;;4.90;4.30;;;;;;;;;;4900686;29;20024;-41
2022/08/04 03:29:13;;;;;;;4.45;4.05;;;;;;;;;;4900667;29;20491;-42
2022/08/04 03:32:00;;;;;;;5.78;4.22;;;;;;;;;;4895644;29;20047;-54
2022/08/04 03:35:02;;;;;;;7.20;3.97;;;;;;;;;;4900171;29;20501;-56
2022/08/04 03:37:36;;;;;;;6.88;3.92;;;;;;;;;;4900443;29;20040;-56
2022/08/04 03:40:20;;;;;;;7.15;4.45;;;;;;;;;;4899313;29;20119;-55
2022/08/04 03:42:45;;;;;;;4.47;4.07;;;;;;;;;;4900118;29;20482;-53
2022/08/04 03:45:11;;;;;;;5.75;4.10;;;;;;;;;;4900006;29;20119;-55
2022/08/04 03:47:57;;;;;;;6.28;4.35;;;;;;;;;;4899972;29;20025;-57
2022/08/04 03:54:14;;;;;;;5.25;3.92;;;;;;;;;;4900215;29;20454;-53
2022/08/04 03:56:42;;;;;;;5.47;4.25;;;;;;;;;;4899502;29;20039;-48
2022/08/04 04:00:09;;;;;;;7.72;3.90;;;;;;;;;;4899761;29;20081;-56
2022/08/04 04:03:11;;;;;;;7.03;4.00;;;;;;;;;;4860039;29;20037;-52
2022/08/04 04:06:07;;;;;;;8.80;3.90;;;;;;;;;;4860105;29;20118;-57
2022/08/04 04:09:10;;;;;;;9.35;3.72;;;;;;;;;;4896568;29;20603;-57
2022/08/04 04:11:49;;;;;;;5.95;4.45;;;;;;;;;;4899842;29;20040;-57
2022/08/04 04:14:45;;;;;;;7.43;3.53;;;;;;;;;;4899483;29;20366;-53
2022/08/04 04:17:45;;;;;;;5.32;3.63;;;;;;;;;;4899684;29;20032;-57
2022/08/04 04:20:36;;;;;;;7.82;3.85;;;;;;;;;;4899740;29;20100;-58
2022/08/04 04:23:21;;;;;;;7.20;3.40;;;;;;;;;;4894718;29;20037;-58
2022/08/04 04:26:02;;;;;;;13.88;3.67;;;;;;;;;;4899362;29;20033;-59
2022/08/04 04:29:08;;;;;;;15.98;3.90;;;;;;;;;;4899547;29;20116;-56
2022/08/04 04:31:46;;;;;;;16.13;3.80;;;;;;;;;;4859648;29;20033;-51
2022/08/04 04:34:34;;;;;;;11.18;4.40;;;;;;;;;;4859649;29;20034;-57
2022/08/04 04:37:08;;;;;;;12.18;4.32;;;;;;;;;;4886977;29;20379;-58
2022/08/04 04:39:48;;;;;;;10.82;3.78;;;;;;;;;;4899092;29;20031;-58
2022/08/04 04:42:35;;;;;;;9.65;3.30;;;;;;;;;;4899051;29;20033;-49
2022/08/04 04:45:25;;;;;;;7.70;3.10;;;;;;;;;;4898995;29;20482;-58
2022/08/04 04:48:17;;;;;;;11.73;3.45;;;;;;;;;;4898955;29;20470;-56
2022/08/04 04:51:10;;;;;;;6.78;3.58;;;;;;;;;;4898966;29;20132;-57
2022/08/04 04:53:44;;;;;;;5.40;3.35;;;;;;;;;;4899094;29;20033;-56
2022/08/04 04:56:26;;;;;;;15.80;3.70;;;;;;;;;;4898978;29;20047;-56
2022/08/04 04:58:54;;;;;;;6.97;3.53;;;;;;;;;;4899004;29;20032;-57
2022/08/04 05:01:19;;;;;;;9.98;3.50;;;;;;;;;;4898629;29;20036;-58
2022/08/04 05:04:01;;;;;;;15.20;4.15;;;;;;;;;;4897415;29;20025;-54
2022/08/04 05:06:41;;;;;;;11.00;3.33;;;;;;;;;;4898581;29;20072;-57
2022/08/04 05:09:44;;;;;;;38.40;5.72;;;;;;;;;;4897883;29;20033;-44
2022/08/04 05:12:12;;;;;;;8.07;3.17;;;;;;;;;;4898724;29;20057;-56
2022/08/04 05:14:45;;;;;;;8.38;3.67;;;;;;;;;;4898555;29;20115;-48
2022/08/04 05:17:25;;;;;;;5.72;3.53;;;;;;;;;;4898348;29;20107;-55
2022/08/04 05:19:52;;;;;;;8.43;3.17;;;;;;;;;;4898371;29;20035;-56
2022/08/04 05:22:31;;;;;;;3.88;3.10;;;;;;;;;;4898546;29;20029;-56
2022/08/04 05:25:02;;;;;;;4.28;2.90;;;;;;;;;;4898536;29;20037;-54
2022/08/04 05:27:35;;;;;;;5.13;3.00;;;;;;;;;;4898344;29;20029;-56
2022/08/04 05:30:03;;;;;;;3.28;2.97;;;;;;;;;;4898174;29;20474;-55
2022/08/04 05:32:43;;;;;;;5.70;3.10;;;;;;;;;;4898012;29;20401;-54
2022/08/04 05:35:14;;;;;;;8.82;3.20;;;;;;;;;;4898319;29;20029;-54
2022/08/04 05:37:42;;;;;;;8.10;3.30;;;;;;;;;;4898126;29;20032;-54
2022/08/04 05:40:10;;;;;;;4.45;3.38;;;;;;;;;;4898248;29;20033;-54
2022/08/04 05:42:38;;;;;;;3.97;3.38;;;;;;;;;;4898254;29;20029;-53
2022/08/04 05:45:06;;;;;;;4.65;3.22;;;;;;;;;;4897820;29;20515;-51
2022/08/04 05:47:33;;;;;;;9.75;3.60;;;;;;;;;;4897791;29;20036;-53
2022/08/04 05:50:00;;;;;;;4.93;3.20;;;;;;;;;;4897350;29;20032;-53
2022/08/04 05:52:26;;;;;;;8.02;3.42;;;;;;;;;;4896390;29;20515;-51
2022/08/04 05:54:53;;;;;;;6.88;3.70;;;;;;;;;;4897039;29;20040;-52
2022/08/04 05:57:19;;;;;;;5.45;2.97;;;;;;;;;;4897115;29;20036;-52
2022/08/04 05:59:45;;;;;;;4.97;3.20;;;;;;;;;;4897349;29;20032;-51
2022/08/04 06:02:14;;;;;;;3.50;3.13;;;;;;;;;;4897662;29;20028;-50
2022/08/04 06:04:41;;;;;;;3.83;3.17;;;;;;;;;;4897627;29;20032;-49
2022/08/04 06:07:07;;;;;;;9.80;3.35;;;;;;;;;;4897827;29;20385;-53
2022/08/04 06:09:33;;;;;;;6.57;3.10;;;;;;;;;;4897896;29;20426;-54
2022/08/04 06:12:06;;;;;;;7.38;3.40;;;;;;;;;;4897847;29;20035;-51
2022/08/04 06:14:37;;;;;;;7.70;3.10;;;;;;;;;;4897739;29;20366;-50
2022/08/04 06:17:05;;;;;;;7.80;3.78;;;;;;;;;;4897819;29;20031;-54
2022/08/04 06:19:35;;;;;;;4.53;3.15;;;;;;;;;;4897672;29;20363;-42
2022/08/04 06:22:03;;;;;;;4.43;3.10;;;;;;;;;;4897712;29;20036;-53
2022/08/04 06:24:29;;;;;;;7.78;3.35;;;;;;;;;;4897670;29;20479;-49
2022/08/04 06:26:56;;;;;;;4.45;3.15;;;;;;;;;;4897442;29;20040;-52
2022/08/04 06:29:30;;;;;;;5.57;3.13;;;;;;;;;;4897463;29;20040;-52
2022/08/04 06:31:58;;;;;;;4.55;3.28;;;;;;;;;;4897347;29;20036;-53
2022/08/04 06:34:28;;;;;;;6.28;3.30;;;;;;;;;;4897650;29;20115;-53
2022/08/04 06:36:54;;;;;;;4.03;3.15;;;;;;;;;;4897217;29;20033;-50
2022/08/04 06:39:22;;;;;;;4.38;2.80;;;;;;;;;;4897593;29;20036;-53
2022/08/04 06:41:50;;;;;;;4.30;3.03;;;;;;;;;;4897287;29;20033;-53
2022/08/04 06:44:17;;;;;;;6.70;2.85;;;;;;;;;;4897241;29;20077;-54
2022/08/04 06:46:43;;;;;;;2.88;2.60;;;;;;;;;;4897305;29;20029;-54
2022/08/04 06:49:10;;;;;;;2.67;2.47;;;;;;;;;;4897475;29;20044;-50
2022/08/04 06:51:37;;;;;;;5.78;2.70;;;;;;;;;;4897029;29;20060;-47
2022/08/04 06:54:03;;;;;;;3.00;2.80;;;;;;;;;;4897663;29;20036;-47
2022/08/04 06:56:30;;;;;;;4.60;2.95;;;;;;;;;;4897383;29;20037;-49
2022/08/04 06:58:58;;;;;;;3.47;2.72;;;;;;;;;;4897616;29;20489;-45
2022/08/04 07:01:26;;;;;;;2.78;2.55;;;;;;;;;;4897445;29;20071;-52
2022/08/04 07:03:52;;;;;;;3.20;2.90;;;;;;;;;;4897533;29;20043;-44
2022/08/04 07:06:18;;;;;;;2.78;2.42;;;;;;;;;;4897229;29;20103;-47
2022/08/04 07:08:44;;;;;;;2.85;2.28;;;;;;;;;;4897307;29;20037;-45
2022/08/04 07:11:10;;;;;;;3.30;2.58;;;;;;;;;;4896154;29;20024;-43
2022/08/04 07:13:36;;;;;;;3.28;2.67;;;;;;;;;;4894556;29;20064;-46
2022/08/04 07:16:04;;;;;;;5.38;2.70;;;;;;;;;;4896751;29;20076;-44
2022/08/04 07:18:30;;;;;;;4.10;1.67;;;;;;;;;;4896940;29;20522;-42
2022/08/04 07:20:56;;;;;;;4.60;2.60;;;;;;;;;;4896438;29;20084;-42
2022/08/04 07:23:24;;;;;;;2.72;2.17;;;;;;;;;;4897158;29;20124;-47
2022/08/04 07:25:55;;;;;;;2.65;2.42;;;;;;;;;;4897098;29;20505;-48
2022/08/04 07:28:23;;;;;;;2.97;2.22;;;;;;;;;;4896048;29;20504;-44
2022/08/04 07:30:49;;;;;;;2.28;2.10;;;;;;;;;;4896307;29;20064;-45
2022/08/04 07:33:18;;;;;;;3.00;2.70;;;;;;;;;;4899731;29;20104;-43
2022/08/04 07:35:49;;;;;;;;;;;;;;;;;;4900852;29;20033;-42
2022/08/04 07:38:14;;;;;;;2.42;2.13;;;;;;;;;;4900415;29;19923;-43
2022/08/04 07:40:40;;;;;;;2.58;2.20;;;;;;;;;;4900168;29;20474;-43
2022/08/04 07:43:07;;;;;;;4.40;2.58;;;;;;;;;;4900359;29;20037;-44
2022/08/04 07:45:33;;;;;;;2.40;2.20;;;;;;;;;;4900215;29;20039;-44
2022/08/04 07:48:00;;;;;;;4.68;2.25;;;;;;;;;;4900032;29;20029;-46
2022/08/04 07:50:27;;;;;;;2.47;2.28;;;;;;;;;;4899993;29;20035;-47
2022/08/04 07:52:53;;;;;;;5.18;2.05;;;;;;;;;;4899913;29;20033;-46
2022/08/04 07:55:19;;;;;;;2.85;2.25;;;;;;;;;;4900057;29;20071;-53
2022/08/04 07:57:45;;;;;;;6.95;2.45;;;;;;;;;;4900086;29;20039;-43
2022/08/04 08:00:13;;;;;;;1.55;1.45;;;;;;;;;;4882919;29;20170;-49
2022/08/04 08:02:40;;;;;;;2.25;1.90;;;;;;;;;;4899860;29;20553;-47
2022/08/04 08:05:09;;;;;;;5.63;3.05;;;;;;;;;;4900021;29;20068;-47
2022/08/04 08:07:35;;;;;;;4.27;2.10;;;;;;;;;;4900025;29;20390;-48
2022/08/04 08:10:00;;;;;;;3.67;2.33;;;;;;;;;;4899699;29;20032;-48
2022/08/04 08:12:26;;;;;;;3.78;2.25;;;;;;;;;;4899792;29;20032;-47
2022/08/04 08:14:51;;;;;;;2.28;2.08;;;;;;;;;;4899717;29;20569;-43
2022/08/04 08:17:17;;;;;;;3.70;2.35;;;;;;;;;;4897118;29;20067;-44
2022/08/04 08:19:42;;;;;;;4.50;2.45;;;;;;;;;;4895393;29;20024;-48
2022/08/04 08:22:09;;;;;;;3.55;2.17;;;;;;;;;;4899816;29;20040;-47
2022/08/04 08:24:35;;;;;;;2.47;2.00;;;;;;;;;;4899306;29;20043;-43
2022/08/04 08:27:05;;;;;;;2.60;2.17;;;;;;;;;;4899340;29;20064;-46
2022/08/04 08:29:33;;;;;;;2.10;1.90;;;;;;;;;;4899659;29;20044;-43
2022/08/04 08:31:59;;;;;;;4.72;2.10;;;;;;;;;;4899307;29;20076;-45
2022/08/04 08:34:27;;;;;;;6.07;2.22;;;;;;;;;;4899496;29;20033;-46
2022/08/04 08:37:20;;;;;;;3.78;1.45;;;;;;;;;;4899118;29;20035;-50
2022/08/04 08:39:58;;;;;;;2.50;2.17;;;;;;;;;;4899405;29;20031;-51
2022/08/04 08:42:54;;;;;;;2.13;1.95;;;;;;;;;;4899051;29;20116;-52
2022/08/04 08:45:32;;;;;;;2.88;1.83;;;;;;;;;;4898219;29;20107;-54
2022/08/04 08:48:06;;;;;;;2.30;2.05;;;;;;;;;;4899223;29;20047;-43
2022/08/04 08:50:49;;;;;;;2.08;1.88;;;;;;;;;;4898952;29;20104;-52
2022/08/04 08:54:04;;;;;;;3.50;2.10;;;;;;;;;;4899083;29;20418;-53
2022/08/04 08:56:46;;;;;;;3.75;2.28;;;;;;;;;;4881839;29;20040;-50
2022/08/04 08:59:37;;;;;;;2.53;1.77;;;;;;;;;;4897325;29;20032;-54
2022/08/04 09:02:20;;;;;;;3.03;2.28;;;;;;;;;;4897249;29;20076;-48
2022/08/04 09:05:12;;;;;;;3.40;2.00;;;;;;;;;;4897085;29;20037;-44
2022/08/04 09:07:59;;;;;;;2.53;2.00;;;;;;;;;;4894932;29;20649;-48
2022/08/04 09:10:38;;;;;;;1.70;1.60;;;;;;;;;;4897335;29;20041;-45
2022/08/04 09:13:12;;;;;;;4.78;1.90;;;;;;;;;;4897301;29;20037;-47
2022/08/04 09:15:55;;;;;;;1.73;1.60;;;;;;;;;;4897077;29;20043;-49
2022/08/04 09:18:23;;;;;;;2.10;1.90;;;;;;;;;;4897189;29;20032;-44
2022/08/04 09:20:54;;;;;;;2.10;1.90;;;;;;;;;;4896814;29;20507;-46
2022/08/04 09:23:26;;;;;;;3.38;1.90;;;;;;;;;;4896995;29;20029;-44
2022/08/04 09:26:07;;;;;;;3.58;2.10;;;;;;;;;;4896762;29;20131;-46
2022/08/04 09:28:52;;;;;;;15.70;2.42;;;;;;;;;;4895741;29;20029;-47
2022/08/04 09:31:23;;;;;;;5.28;2.72;;;;;;;;;;4896480;29;20037;-49
2022/08/04 09:33:56;;;;;;;2.38;1.85;;;;;;;;;;4896559;29;20070;-45
2022/08/04 09:36:47;;;;;;;15.43;2.90;;;;;;;;;;4896676;29;20045;-45
2022/08/04 09:39:34;;;;;;;2.00;1.80;;;;;;;;;;4896673;29;20028;-46
2022/08/04 09:42:33;;;;;;;2.70;1.60;;;;;;;;;;4889788;29;20036;-43
2022/08/04 09:45:15;;;;;;;1.97;1.70;;;;;;;;;;4896814;29;20435;-46
2022/08/04 09:47:52;;;;;;;2.35;2.15;;;;;;;;;;4896321;29;20511;-44
2022/08/04 09:50:36;;;;;;;4.65;1.90;;;;;;;;;;4895197;29;20039;-43
2022/08/04 09:53:07;;;;;;;2.22;2.00;;;;;;;;;;4895536;29;20402;-42
2022/08/04 09:55:38;;;;;;;3.70;1.98;;;;;;;;;;4894705;29;20064;-49
2022/08/04 09:58:26;;;;;;;2.33;1.80;;;;;;;;;;4894681;29;20561;-48
2022/08/04 10:01:00;;;;;;;3.10;2.20;;;;;;;;;;4894390;29;20036;-46
2022/08/04 10:03:32;;;;;;;2.33;2.10;;;;;;;;;;4895188;29;20108;-44
2022/08/04 10:06:21;;;;;;;1.50;1.40;;;;;;;;;;4894687;29;20485;-42
2022/08/04 10:09:11;;;;;;;2.10;1.80;;;;;;;;;;4894766;29;20469;-49
2022/08/04 10:11:53;;;;;;;2.45;1.67;;;;;;;;;;4894730;29;20112;-42
2022/08/04 10:14:34;;;;;;;2.40;2.20;;;;;;;;;;4894640;29;20123;-43
2022/08/04 10:17:29;;;;;;;1.55;1.45;;;;;;;;;;4894493;29;20041;-43
2022/08/04 10:20:12;;;;;;;2.33;2.13;;;;;;;;;;4860035;29;20053;-45
2022/08/04 10:22:45;;;;;;;3.67;2.33;;;;;;;;;;4894767;29;20029;-43
2022/08/04 10:25:39;;;;;;;4.90;1.65;;;;;;;;;;4894836;29;20041;-45
2022/08/04 10:28:10;;;;;;;2.85;2.00;;;;;;;;;;4894612;29;20092;-50
2022/08/04 10:30:39;;;;;;;3.28;1.88;;;;;;;;;;4894727;29;20039;-54
2022/08/04 10:33:15;;;;;;;1.88;1.77;;;;;;;;;;4894393;29;20058;-45
2022/08/04 10:35:50;;;;;;;1.98;1.77;;;;;;;;;;4894186;29;20555;-46
2022/08/04 10:38:28;;;;;;;1.90;1.80;;;;;;;;;;4894870;29;20032;-54
2022/08/04 10:41:38;;;;;;;9.77;2.42;;;;;;;;;;4895108;29;20045;-52
2022/08/04 10:44:39;;;;;;;2.20;2.00;;;;;;;;;;4895517;29;20036;-46
2022/08/04 10:47:13;;;;;;;2.83;2.03;;;;;;;;;;4888342;29;20528;-57
2022/08/04 10:49:48;;;;;;;3.20;2.00;;;;;;;;;;4893657;29;20036;-51
2022/08/04 10:52:26;;;;;;;2.08;1.88;;;;;;;;;;4895918;29;20060;-44
2022/08/04 10:55:22;;;;;;;2.75;1.80;;;;;;;;;;4894652;29;20112;-48
2022/08/04 10:57:51;;;;;;;3.00;1.88;;;;;;;;;;4894725;29;20029;-43
2022/08/04 11:00:27;;;;;;;3.15;1.85;;;;;;;;;;4895683;29;20025;-55
2022/08/04 11:03:19;;;;;;;2.00;1.77;;;;;;;;;;4895531;29;20028;-48
2022/08/04 11:05:51;;;;;;;3.25;1.70;;;;;;;;;;4894367;29;20123;-57
2022/08/04 11:08:24;;;;;;;2.92;1.85;;;;;;;;;;4897488;29;20654;-56
2022/08/04 11:11:13;;;;;;;2.03;1.90;;;;;;;;;;4899569;29;20496;-46
2022/08/04 11:13:53;;;;;;;;;;;;;;;;;;4899905;29;20039;-54
2022/08/04 11:16:21;;;;;;;;;;;;;;;;;;4899812;29;19971;-45
2022/08/04 11:19:07;;;;;;;2.47;2.25;;;;;;;;;;4899162;29;19926;-44
2022/08/04 11:21:41;;;;;;;2.53;2.03;;;;;;;;;;4901464;29;20037;-45
2022/08/04 11:24:13;;;;;;;2.10;1.90;;;;;;;;;;4898847;29;20063;-49
2022/08/04 11:26:48;;;;;;;2.20;2.00;;;;;;;;;;4899347;29;20407;-52
2022/08/04 11:29:33;;;;;;;5.47;2.10;;;;;;;;;;4899496;29;20618;-53
2022/08/04 11:32:02;;;;;;;1.98;1.88;;;;;;;;;;4899195;29;20028;-53
2022/08/04 11:34:27;;;;;;;2.23;2.00;;;;;;;;;;4899350;29;20132;-54
2022/08/04 11:37:14;;;;;;;2.67;2.03;;;;;;;;;;4897796;29;20512;-50
2022/08/04 11:39:56;;;;;;;3.03;2.20;;;;;;;;;;4898761;29;20037;-54
2022/08/04 11:42:35;;;;;;;3.10;1.90;;;;;;;;;;4898563;29;20096;-52
2022/08/04 11:45:06;;;;;;;2.20;2.00;;;;;;;;;;4898902;29;20449;-55
2022/08/04 11:47:40;;;;;;;5.75;2.05;;;;;;;;;;4898770;29;20039;-53
2022/08/04 11:50:20;;;;;;;2.38;2.10;;;;;;;;;;4898466;29;20116;-46
2022/08/04 11:52:47;;;;;;;2.00;1.90;;;;;;;;;;4898427;29;20041;-51
2022/08/04 11:55:15;;;;;;;1.73;1.63;;;;;;;;;;4898619;29;20032;-55
2022/08/04 11:57:42;;;;;;;2.70;2.17;;;;;;;;;;4898685;29;20029;-45
2022/08/04 12:00:11;;;;;;;3.28;2.10;;;;;;;;;;4898609;29;20032;-55
2022/08/04 12:03:05;;;;;;;1.90;1.80;;;;;;;;;;4898402;29;20537;-56
2022/08/04 12:05:33;;;;;;;2.00;1.90;;;;;;;;;;4898263;29;20033;-51
2022/08/04 12:08:26;;;;;;;2.60;1.90;;;;;;;;;;4898204;29;20025;-50
2022/08/04 12:11:37;;;;;;;2.03;1.90;;;;;;;;;;4898235;29;20287;-44
2022/08/04 12:14:40;;;;;;;2.83;1.85;;;;;;;;;;4896916;29;20040;-48
2022/08/04 12:17:07;;;;;;;2.30;2.13;;;;;;;;;;4896739;29;20043;-42
2022/08/04 12:19:55;;;;;;;1.88;1.77;;;;;;;;;;4897911;29;20032;-45
2022/08/04 12:22:24;;;;;;;1.90;1.80;;;;;;;;;;4897923;29;20037;-51
2022/08/04 12:25:03;;;;;;;3.15;1.92;;;;;;;;;;4897946;29;20033;-50
2022/08/04 12:27:34;;;;;;;;;;;;;;;;;;4897638;29;20029;-46
2022/08/04 12:30:01;;;;;;;2.10;2.00;;;;;;;;;;4898161;29;19919;-43
2022/08/04 12:32:58;;;;;;;2.35;2.15;;;;;;;;;;4896644;29;20028;-51
2022/08/04 12:35:37;;;;;;;2.55;2.30;;;;;;;;;;4897715;29;20136;-44
2022/08/04 12:38:10;;;;;;;2.70;2.20;;;;;;;;;;4897792;29;20036;-47
2022/08/04 12:40:53;;;;;;;2.17;1.98;;;;;;;;;;4897566;29;20123;-42
2022/08/04 12:43:19;;;;;;;11.40;3.83;;;;;;;;;;4897516;29;20766;-54
2022/08/04 12:45:54;;;;;;;2.95;2.00;;;;;;;;;;4897818;29;20043;-46
2022/08/04 12:48:21;;;;;;;2.45;2.25;;;;;;;;;;4897466;29;20544;-55
2022/08/04 12:50:52;;;;;;;2.83;2.00;;;;;;;;;;4897007;29;20053;-44
2022/08/04 12:53:32;;;;;;;2.60;2.20;;;;;;;;;;4897785;29;20029;-51
2022/08/04 12:56:00;;;;;;;2.58;2.25;;;;;;;;;;4897246;29;20501;-56
2022/08/04 12:58:29;;;;;;;4.15;2.55;;;;;;;;;;4897653;29;20045;-45
2022/08/04 13:01:16;;;;;;;2.50;1.92;;;;;;;;;;4897471;29;20044;-42
2022/08/04 13:03:51;;;;;;;3.38;2.20;;;;;;;;;;4897217;29;20047;-48
2022/08/04 13:06:23;;;;;;;3.28;1.90;;;;;;;;;;4897387;29;20108;-55
2022/08/04 13:08:49;;;;;;;3.38;2.42;;;;;;;;;;4897170;29;20033;-44
2022/08/04 13:11:16;;;;;;;2.65;1.90;;;;;;;;;;4896899;29;20097;-44
2022/08/04 13:13:44;;;;;;;4.82;2.33;;;;;;;;;;4897343;29;20069;-42
2022/08/04 13:16:10;;;;;;;2.50;2.00;;;;;;;;;;4896956;29;20040;-51
2022/08/04 13:18:45;;;;;;;3.30;2.00;;;;;;;;;;4897136;29;20035;-51
2022/08/04 13:21:17;;;;;;;4.85;2.10;;;;;;;;;;4895746;29;20107;-44
2022/08/04 13:23:46;;;;;;;10.90;2.33;;;;;;;;;;4896981;29;20064;-50
2022/08/04 13:26:16;;;;;;;2.00;1.90;;;;;;;;;;4896809;29;20017;-44
2022/08/04 13:28:45;;;;;;;5.30;2.20;;;;;;;;;;4896666;29;20036;-52
2022/08/04 13:31:14;;;;;;;2.40;2.07;;;;;;;;;;4896346;29;20480;-55
2022/08/04 13:33:42;;;;;;;3.63;1.90;;;;;;;;;;4896846;29;20434;-44
2022/08/04 13:36:09;;;;;;;2.47;2.03;;;;;;;;;;4896927;29;20043;-55
2022/08/04 13:38:38;;;;;;;2.60;1.85;;;;;;;;;;4896461;29;20036;-52
2022/08/04 13:41:05;;;;;;;2.35;2.15;;;;;;;;;;4896724;29;20051;-42
2022/08/04 13:43:38;;;;;;;4.03;1.80;;;;;;;;;;4896742;29;20108;-55
2022/08/04 13:46:06;;;;;;;3.78;2.08;;;;;;;;;;4896384;29;20036;-51
2022/08/04 13:48:36;;;;;;;3.58;1.80;;;;;;;;;;4896436;29;20035;-42
2022/08/04 13:51:04;;;;;;;2.17;1.98;;;;;;;;;;4896489;29;20158;-54
2022/08/04 13:53:33;;;;;;;3.42;1.88;;;;;;;;;;4896960;29;20051;-53
2022/08/04 13:56:01;;;;;;;4.07;2.00;;;;;;;;;;4896490;29;20041;-51
2022/08/04 13:58:31;;;;;;;2.83;2.05;;;;;;;;;;4896164;29;20037;-45
2022/08/04 14:00:57;;;;;;;4.13;2.05;;;;;;;;;;4896361;29;20020;-49
2022/08/04 14:03:38;;;;;;;3.57;2.33;;;;;;;;;;4896379;29;20043;-55
2022/08/04 14:06:19;;;;;;;3.67;2.40;;;;;;;;;;4896529;29;20259;-47
2022/08/04 14:08:57;;;;;;;3.17;2.20;;;;;;;;;;4896466;29;20500;-51
2022/08/04 14:11:33;;;;;;;4.97;2.40;;;;;;;;;;4896674;29;20052;-47
2022/08/04 14:14:11;;;;;;;2.97;2.20;;;;;;;;;;4895655;29;20029;-43
2022/08/04 14:16:37;;;;;;;4.30;2.35;;;;;;;;;;4895344;29;20040;-52
2022/08/04 14:19:03;;;;;;;8.23;2.90;;;;;;;;;;4896378;29;20040;-49
2022/08/04 14:21:35;;;;;;;3.20;2.25;;;;;;;;;;4894894;29;20040;-53
2022/08/04 14:24:00;;;;;;;2.83;2.10;;;;;;;;;;4895046;29;20032;-53
2022/08/04 14:26:33;;;;;;;3.50;2.28;;;;;;;;;;4895625;29;20033;-53
2022/08/04 14:29:14;;;;;;;3.00;1.90;;;;;;;;;;4895082;29;20123;-55
2022/08/04 14:31:39;;;;;;;4.30;3.00;;;;;;;;;;4896060;29;20029;-51
2022/08/04 14:34:05;;;;;;;2.83;2.10;;;;;;;;;;4895810;29;20398;-50
2022/08/04 14:36:41;;;;;;;4.38;2.20;;;;;;;;;;4895553;29;20157;-48
2022/08/04 14:39:10;;;;;;;3.63;1.92;;;;;;;;;;4895798;29;20028;-43
2022/08/04 14:41:49;;;;;;;3.53;2.13;;;;;;;;;;4896915;29;20035;-45
2022/08/04 14:44:15;;;;;;;1.95;1.85;;;;;;;;;;4899958;29;20482;-46
2022/08/04 14:46:52;;;;;;;2.30;2.10;;;;;;;;;;4899947;29;20024;-49
2022/08/04 14:49:18;;;;;;;2.28;1.95;;;;;;;;;;4899789;29;20028;-49
2022/08/04 14:51:51;;;;;;;3.30;2.10;;;;;;;;;;4899417;29;20055;-52
2022/08/04 14:54:32;;;;;;;2.65;1.77;;;;;;;;;;4899580;29;20479;-46
2022/08/04 14:57:01;;;;;;;5.10;2.00;;;;;;;;;;4899308;29;20056;-46
2022/08/04 14:59:38;;;;;;;2.00;1.90;;;;;;;;;;4899626;29;20376;-52
2022/08/04 15:02:04;;;;;;;2.70;2.05;;;;;;;;;;4899468;29;20033;-43
2022/08/04 15:04:30;;;;;;;2.00;1.80;;;;;;;;;;4899256;29;20027;-48
2022/08/04 15:06:55;;;;;;;2.75;2.20;;;;;;;;;;4899524;29;20032;-52
2022/08/04 15:09:21;;;;;;;2.30;2.10;;;;;;;;;;4899151;29;20504;-48
2022/08/04 15:11:47;;;;;;;2.30;2.10;;;;;;;;;;4899335;29;20032;-44
2022/08/04 15:14:14;;;;;;;4.28;2.00;;;;;;;;;;4897977;29;20084;-45
2022/08/04 15:16:39;;;;;;;3.25;2.00;;;;;;;;;;4899314;29;20123;-47
2022/08/04 15:19:06;;;;;;;2.00;1.90;;;;;;;;;;4899140;29;20186;-42
2022/08/04 15:21:33;;;;;;;4.60;2.45;;;;;;;;;;4898968;29;20032;-52
2022/08/04 15:23:58;;;;;;;5.22;2.30;;;;;;;;;;4899572;29;20041;-42
2022/08/04 15:26:39;;;;;;;3.28;2.53;;;;;;;;;;4899115;29;20040;-52
2022/08/04 15:29:12;;;;;;;2.88;2.00;;;;;;;;;;4899045;29;20096;-42
2022/08/04 15:31:40;;;;;;;3.88;2.20;;;;;;;;;;4898845;29;20055;-43
2022/08/04 15:34:10;;;;;;;3.08;2.13;;;;;;;;;;4897854;29;20017;-43
2022/08/04 15:36:56;;;;;;;3.50;2.08;;;;;;;;;;4898897;29;20365;-55